Aérodrome :
LOGIN :

S'inscrire | Disclaimer

   EN    FR    IT 

 










Légende :    VFR   VFR Marginal   IFR   IFR Intensif   IFR Très Intensif
Visi : 
Plafond : 
>= 8 km
>= 3000ft
5 à 8 km
1000 à 3000 ft
1500m à 5 km
500 à 1000 ft
800 à 1500m
200 à 500 ft
< 800m
< 200 ft
Symboles :   Orages  Brouillard  Fortes neiges  Fortes précipitations  Vent > 20 kt
SIGMETs :   Divers  Orages  Givrage  Turbulence  Onde Orograph.  Cendres Volcan.






- Altitude de l'aérodrome : 203 ft
- Code IATA : XMJ


LFBM - Mont-De-Marsan

DERNIER METAR :
  • 151430Z AUTO 24010KT 210V280 9999 FEW032 SCT041 BKN086 17/11 Q1017 NOSIG

METARs EXPIRÉS :
  • 151400Z AUTO 24014KT 220V280 9999 FEW023 BKN032 BKN052 17/11 Q1017
  • 151330Z AUTO 24010KT 210V280 9999 BKN023 OVC088 17/12 Q1017 NOSIG
  • 151300Z AUTO 24010KT 200V270 9999 BKN021 BKN029 BKN098 17/13 Q1017 NOSIG
  • 151230Z AUTO 24009KT 210V270 9999 BKN017 BKN022 BKN096 16/13 Q1017 NOSIG
  • 151200Z AUTO 23007KT 190V260 9999 SCT018/// BKN032/// BKN044/// ///TCU 14/12 Q1017 BECMG BKN040 BKN080

TAF TAF LFBM
Valide du 15 à 15h jusqu'au 16 à 15h UTC


151400Z 1515/1615 24010KT 9999 SCT025 BKN050 BKN090



MET'MAP, la Météo Aéronautique d'un coup d'oeil ! - Copyright ORBIFLY Décembre 2007 - Disclaimer

ORBIFLY MET'MAP TEAM :

Programmation & Développement : Alexandra Zaïnal
Conception & Développement : Baudouin d'Aumeries
Co-Programmation & Développement : Marc-Olivier Méhu
Soutien technique & logistique : Manuel Goepfert

Contact : metmap@orbifly.com




SOURCES & CREDITS :

   NOAA